Terminal Aerodrome Forecast
Issued by NWS La Crosse, WI

Home | Current Version | Previous Version | Text Only | Print | Product List | Glossary On
Versions: 1 2 3 4 5 6 7 8 9 10 11 12 13 14 15 16 17 18 19 20 21
000
FTUS43 KARX 261012 AAB
TAFLSE
TAF AMD
KLSE 261012Z 2610/2706 12006KT P6SM BKN080
      TEMPO 2610/2612 31015G35KT 1SM +TSRA BKN005CB
     FM261300 20006KT P6SM SCT080
     FM262000 20009KT P6SM SCT040
     FM270500 15004KT P6SM VCTS BKN050CB=

USA.gov is the U.S. government's official web portal to all federal, state and local government web resources and services.